Beispiel TAF:
2009/06/12 11:00 TAF EDDS 121100Z 1212/1312 27005KT P6SM BKN080 BECMG 0608 VRB03KT FM1200Z 27008KT P6SM SCT080 FM1600Z 28012KT P6SM SCT050 TEMPO 1622 P6SM -SHRA BKN050 BECMG 0103 VRB03KT RMK NXT FCST BY 12Z
Erklärung:
  • Eingeleitet wird der TAF durch das aktuelle Datum und Uhrzeit, sowie TAF als einleitender Tag
  • EDDS: der ICAO Flughafencode
  • 121100Z: Ausgabezeitpunkt, 12. Tag aktuellen Monats, 11:00 Uhr UTC
  • 1212/1312: Gültigkeitszeitraum, 12. Tag des aktuellen Monats 12:00 Uhr UTC bis zum 13. Tag des aktuellen Monats 12:00 Uhr UTC
  • 27005KT: Windrichtung und -geschwindigkeit, 270° mit 5 Knoten
  • P6SM: Bodensicht
  • BKN080: Bewölkung, "broken" (5-7/8 Bedeckungsgrad) in 8000 Fuß Höhe
  • BECMG 0608: einleitender Tag für Wetteränderung mit Uhrzeit (zwischen 6 und 8 Uhr), "BECMG" dauerhafte Änderung, "TEMPO" zeitweise Änderung
  • gefolgt von den Werten für die Wetteränderung